Time;durP1;ratioP1;P1;durP2;ratioP2;P2;SDS_P1;SDS_P2;PMS_P1;PMS_P2;Temp;Humidity;BMP_temperature;BMP_pressure;BME280_temperature;BME280_humidity;BME280_pressure;Samples;Min_cycle;Max_cycle;Signal;HPM_P1;HPM_P2
2022/09/21 00:01:22;;;;;;;2.43;1.80;;;18.50;66.00;19.60;101723.00;;;;5028343;28;20192;-44
2022/09/21 00:03:54;;;;;;;2.50;1.60;;;18.40;66.70;19.60;101724.00;;;;5028007;28;20197;-44
2022/09/21 00:06:21;;;;;;;2.37;1.70;;;18.40;65.90;19.50;101714.00;;;;5028244;28;20193;-44
2022/09/21 00:08:47;;;;;;;3.37;2.10;;;18.30;65.80;19.50;101721.00;;;;5028234;28;20262;-44
2022/09/21 00:11:14;;;;;;;3.60;1.90;;;18.30;66.70;19.50;101722.00;;;;5028141;28;20318;-43
2022/09/21 00:13:41;;;;;;;3.07;1.77;;;18.40;66.00;19.50;101729.00;;;;5026786;28;20281;-44
2022/09/21 00:16:07;;;;;;;2.33;1.80;;;18.30;65.90;19.50;101731.00;;;;5028301;28;20189;-43
2022/09/21 00:18:34;;;;;;;2.00;1.80;;;18.30;66.00;19.50;101720.00;;;;5027722;28;20248;-44
2022/09/21 00:21:01;;;;;;;3.00;1.67;;;18.30;66.00;19.50;101733.00;;;;5027141;28;20189;-44
2022/09/21 00:23:28;;;;;;;2.43;1.80;;;18.30;66.00;19.50;101730.00;;;;5028026;28;20277;-44
2022/09/21 00:26:07;;;;;;;1.73;1.63;;;18.30;66.00;19.40;101727.00;;;;5028040;28;20182;-44
2022/09/21 00:28:33;;;;;;;2.00;1.90;;;18.30;66.10;19.40;101725.00;;;;5027814;28;20194;-45
2022/09/21 00:31:03;;;;;;;2.47;1.80;;;18.20;66.00;19.40;101705.00;;;;5028251;28;20633;-44
2022/09/21 00:33:29;;;;;;;2.40;1.97;;;18.30;66.10;19.40;101715.00;;;;5027834;28;20234;-43
2022/09/21 00:35:55;;;;;;;2.60;2.00;;;18.20;67.00;19.40;101731.00;;;;5028600;28;20276;-44
2022/09/21 00:38:21;;;;;;;2.10;1.60;;;18.20;66.10;19.40;101729.00;;;;5027746;28;20167;-43
2022/09/21 00:40:46;;;;;;;2.20;1.77;;;18.20;66.20;19.40;101737.00;;;;5028294;28;20178;-44
2022/09/21 00:43:15;;;;;;;2.97;2.00;;;18.10;66.00;19.40;101729.00;;;;5028064;28;20206;-47
2022/09/21 00:45:42;;;;;;;1.70;1.60;;;18.20;66.10;19.40;101728.00;;;;5037599;28;20178;-45
2022/09/21 00:48:08;;;;;;;2.00;1.80;;;18.20;66.10;19.40;101710.00;;;;5044805;28;20185;-44
2022/09/21 00:50:34;;;;;;;1.70;1.60;;;18.10;66.00;19.30;101743.00;;;;5037768;28;20176;-44
2022/09/21 00:52:59;;;;;;;2.07;1.80;;;18.20;66.00;19.30;101736.00;;;;5027605;28;20249;-44
2022/09/21 00:55:31;;;;;;;2.00;1.53;;;18.20;66.00;19.30;101738.00;;;;5041266;28;20167;-44
2022/09/21 00:58:04;;;;;;;2.40;1.80;;;18.10;66.00;19.30;101738.00;;;;5037817;28;20163;-44
2022/09/21 01:00:30;;;;;;;1.80;1.70;;;18.10;66.00;19.30;101749.00;;;;5031253;28;20170;-44
2022/09/21 01:03:00;;;;;;;2.10;1.90;;;18.10;66.00;19.30;101745.00;;;;5014337;28;20191;-43
2022/09/21 01:05:27;;;;;;;1.80;1.70;;;18.10;66.00;19.30;101734.00;;;;5032774;28;20175;-43
2022/09/21 01:07:52;;;;;;;1.93;1.80;;;18.10;66.00;19.20;101728.00;;;;5031302;28;20208;-44
2022/09/21 01:10:18;;;;;;;2.03;1.83;;;18.10;66.00;19.20;101743.00;;;;5030177;28;20203;-44
2022/09/21 01:13:12;;;;;;;1.70;1.60;;;18.10;66.00;19.20;101743.00;;;;5029910;28;20214;-44
2022/09/21 01:15:58;;;;;;;2.80;1.57;;;18.00;66.00;19.20;101751.00;;;;5030536;28;20168;-44
2022/09/21 01:19:21;;;;;;;1.90;1.80;;;18.10;66.00;19.20;101748.00;;;;5030106;28;20578;-44
2022/09/21 01:22:16;;;;;;;1.70;1.60;;;18.00;65.90;19.20;101735.00;;;;5020408;28;20182;-44
2022/09/21 01:25:23;;;;;;;1.70;1.60;;;18.00;66.10;19.10;101732.00;;;;5031462;28;20185;-45
2022/09/21 01:28:24;;;;;;;2.53;1.67;;;18.00;66.00;19.10;101741.00;;;;5009856;28;20548;-43
2022/09/21 01:30:51;;;;;;;1.83;1.70;;;18.00;65.90;19.10;101678.00;;;;5030014;28;20158;-45
2022/09/21 01:33:26;;;;;;;1.70;1.60;;;18.00;65.90;19.10;101746.00;;;;5029582;28;20209;-44
2022/09/21 01:36:02;;;;;;;1.87;1.60;;;18.00;65.90;19.10;101753.00;;;;5030027;28;20222;-44
2022/09/21 01:38:32;;;;;;;1.97;1.50;;;18.00;65.90;19.10;101759.00;;;;5029802;28;20624;-45
2022/09/21 01:41:01;;;;;;;1.83;1.73;;;18.00;66.00;19.10;101747.00;;;;5030208;28;20239;-44
2022/09/21 01:43:35;;;;;;;1.80;1.70;;;17.90;65.90;19.10;101750.00;;;;5029715;28;20245;-43
2022/09/21 01:46:02;;;;;;;2.17;1.77;;;17.90;65.90;19.00;101743.00;;;;5030015;28;20230;-46
2022/09/21 01:48:31;;;;;;;1.70;1.60;;;17.90;66.00;19.00;101742.00;;;;5029835;28;20533;-44
2022/09/21 01:50:57;;;;;;;1.80;1.70;;;17.90;65.90;19.00;101747.00;;;;5029853;28;20659;-44
2022/09/21 01:53:31;;;;;;;1.50;1.40;;;17.90;65.90;19.00;101754.00;;;;5029288;28;20598;-45
2022/09/21 01:56:20;;;;;;;1.67;1.57;;;17.90;65.90;19.00;101744.00;;;;5029101;28;20164;-44
2022/09/21 01:58:54;;;;;;;1.70;1.60;;;17.90;65.90;19.00;101746.00;;;;5029418;28;20155;-43
2022/09/21 02:01:21;;;;;;;1.70;1.60;;;17.90;65.90;19.00;101750.00;;;;5038537;28;20171;-44
2022/09/21 02:03:58;;;;;;;1.63;1.53;;;17.90;65.90;19.00;101746.00;;;;5016271;28;20193;-43
2022/09/21 02:06:25;;;;;;;1.80;1.70;;;17.80;65.80;19.00;101746.00;;;;5029348;28;20196;-44
2022/09/21 02:08:51;;;;;;;1.90;1.50;;;17.90;65.90;18.90;101748.00;;;;5029585;28;20488;-44
2022/09/21 02:11:17;;;;;;;1.70;1.60;;;17.80;65.80;18.90;101754.00;;;;5029363;28;20170;-43
2022/09/21 02:13:45;;;;;;;1.67;1.57;;;17.80;65.90;18.90;101735.00;;;;5030491;28;20191;-44
2022/09/21 02:16:41;;;;;;;2.40;1.57;;;17.80;65.80;18.90;101740.00;;;;5029009;28;20262;-44
2022/09/21 02:19:33;;;;;;;1.67;1.57;;;17.80;65.90;18.90;101750.00;;;;5029065;28;20305;-44
2022/09/21 02:22:18;;;;;;;1.87;1.77;;;17.80;65.80;18.90;101752.00;;;;5029626;28;20561;-43
2022/09/21 02:24:56;;;;;;;1.70;1.60;;;17.80;65.80;18.70;101750.00;;;;5029139;28;20530;-45
2022/09/21 02:27:43;;;;;;;1.60;1.50;;;17.80;65.80;18.80;101743.00;;;;5029052;28;20641;-44
2022/09/21 02:30:20;;;;;;;1.50;1.40;;;17.80;65.90;18.80;101740.00;;;;5029214;28;20178;-44
2022/09/21 02:32:51;;;;;;;1.50;1.40;;;17.70;65.80;18.80;101745.00;;;;5029183;28;20195;-44
2022/09/21 02:35:56;;;;;;;1.83;1.40;;;17.70;65.80;18.80;101749.00;;;;5030520;28;20538;-44
2022/09/21 02:38:30;;;;;;;1.73;1.50;;;17.70;65.80;18.80;101738.00;;;;5029483;28;20156;-44
2022/09/21 02:41:12;;;;;;;1.73;1.63;;;17.70;65.80;18.80;101738.00;;;;5012568;28;20266;-43
2022/09/21 02:43:51;;;;;;;1.73;1.60;;;17.70;65.80;18.70;101740.00;;;;5028636;28;20246;-43
2022/09/21 02:46:25;;;;;;;1.70;1.60;;;17.70;65.90;18.70;101741.00;;;;5028620;28;20608;-44
2022/09/21 02:48:54;;;;;;;1.60;1.50;;;17.70;65.90;18.70;101747.00;;;;5029045;28;20239;-43
2022/09/21 02:51:32;;;;;;;1.50;1.40;;;17.70;65.90;18.70;101746.00;;;;5012151;28;20177;-44
2022/09/21 02:54:00;;;;;;;1.70;1.60;;;17.60;65.70;18.70;101741.00;;;;5028523;28;20194;-43
2022/09/21 02:56:26;;;;;;;1.40;1.30;;;17.60;65.70;18.70;101744.00;;;;5028250;28;20168;-44
2022/09/21 02:58:55;;;;;;;1.53;1.43;;;17.60;65.80;18.70;101742.00;;;;5028200;28;20181;-44
2022/09/21 03:01:21;;;;;;;1.80;1.60;;;17.60;65.80;18.70;101741.00;;;;5028329;28;20532;-44
2022/09/21 03:03:47;;;;;;;1.70;1.60;;;17.60;65.70;18.70;101749.00;;;;5028363;28;20197;-45
2022/09/21 03:06:13;;;;;;;1.70;1.60;;;17.60;65.70;18.70;101732.00;;;;5028356;28;20542;-44
2022/09/21 03:08:39;;;;;;;1.70;1.60;;;17.60;65.70;18.70;101742.00;;;;5029263;28;20203;-44
2022/09/21 03:11:05;;;;;;;1.70;1.60;;;17.60;65.90;18.70;101743.00;;;;5028468;28;20182;-45
2022/09/21 03:13:31;;;;;;;1.67;1.57;;;17.60;66.00;18.70;101737.00;;;;5029081;28;20987;-44
2022/09/21 03:16:05;;;;;;;1.60;1.50;;;17.60;66.00;18.60;101734.00;;;;5029488;28;20193;-43
2022/09/21 03:18:31;;;;;;;1.60;1.50;;;17.60;65.90;18.60;101735.00;;;;5028664;28;20178;-43
2022/09/21 03:20:57;;;;;;;1.60;1.50;;;17.50;65.80;18.60;101741.00;;;;5029261;28;20176;-43
2022/09/21 03:23:23;;;;;;;1.67;1.57;;;17.60;65.90;18.60;101736.00;;;;5029315;28;20238;-45
2022/09/21 03:25:51;;;;;;;1.67;1.57;;;17.50;65.80;18.60;101736.00;;;;5029197;28;20185;-43
2022/09/21 03:28:17;;;;;;;3.23;1.60;;;17.50;65.80;18.60;101743.00;;;;5029143;28;20181;-44
2022/09/21 03:30:42;;;;;;;4.27;1.93;;;17.50;66.00;18.60;101747.00;;;;5029601;28;20183;-43
2022/09/21 03:33:08;;;;;;;1.80;1.70;;;17.50;66.30;18.60;101745.00;;;;5028874;28;20575;-45
2022/09/21 03:35:34;;;;;;;2.30;1.70;;;17.50;66.10;18.50;101750.00;;;;5029108;28;20183;-44
2022/09/21 03:38:00;;;;;;;4.30;1.80;;;17.50;65.90;18.30;101752.00;;;;5029176;28;20191;-44
2022/09/21 03:40:26;;;;;;;3.30;1.77;;;17.50;66.00;18.50;101761.00;;;;5029186;28;20163;-45
2022/09/21 03:42:52;;;;;;;3.50;1.50;;;17.50;65.80;18.50;101747.00;;;;5028861;28;20191;-44
2022/09/21 03:45:18;;;;;;;3.63;1.80;;;17.50;65.80;18.50;101742.00;;;;5030557;28;20536;-43
2022/09/21 03:47:44;;;;;;;6.97;1.87;;;17.50;66.00;18.50;101741.00;;;;5023035;28;20170;-43
2022/09/21 03:50:10;;;;;;;4.27;1.70;;;17.40;65.80;18.50;101740.00;;;;5013838;28;20198;-44
2022/09/21 03:52:37;;;;;;;6.27;1.97;;;17.40;65.80;18.50;101749.00;;;;5008769;28;20204;-43
2022/09/21 03:55:05;;;;;;;3.07;1.97;;;17.40;65.80;18.50;101744.00;;;;5009530;28;20268;-43
2022/09/21 03:57:34;;;;;;;3.70;1.90;;;17.40;65.70;18.50;101739.00;;;;5008780;28;20648;-45
2022/09/21 04:00:02;;;;;;;1.93;1.70;;;17.40;66.50;18.50;101742.00;;;;5009267;28;20173;-44
2022/09/21 04:02:28;;;;;;;3.63;1.80;;;17.40;65.80;18.50;101751.00;;;;5008333;28;20816;-44
2022/09/21 04:04:54;;;;;;;3.07;1.90;;;17.40;65.70;18.40;101748.00;;;;5009115;28;20228;-44
2022/09/21 04:07:20;;;;;;;3.47;1.80;;;17.40;65.70;18.40;101743.00;;;;5009479;28;20178;-44
2022/09/21 04:09:46;;;;;;;2.43;1.60;;;17.30;65.60;18.40;101746.00;;;;5017707;28;20604;-45
2022/09/21 04:12:11;;;;;;;1.60;1.50;;;17.40;65.70;18.40;101743.00;;;;5013665;28;20207;-44
2022/09/21 04:14:37;;;;;;;2.37;1.70;;;17.30;65.50;18.40;101746.00;;;;5022734;28;20192;-44
2022/09/21 04:17:03;;;;;;;1.97;1.50;;;17.30;65.60;18.40;101743.00;;;;5021410;28;20419;-44
2022/09/21 04:19:29;;;;;;;2.57;1.70;;;17.30;65.60;18.40;101742.00;;;;5009213;28;20225;-45
2022/09/21 04:21:55;;;;;;;2.13;1.70;;;17.30;65.60;18.30;101738.00;;;;5023267;28;20195;-43
2022/09/21 04:24:21;;;;;;;3.07;1.70;;;17.20;65.60;18.30;101751.00;;;;5019272;28;20528;-44
2022/09/21 04:26:47;;;;;;;2.07;1.70;;;17.30;65.60;18.30;101743.00;;;;5009226;28;20268;-44
2022/09/21 04:29:13;;;;;;;3.67;1.70;;;17.20;65.40;18.30;101745.00;;;;5010786;28;20859;-45
2022/09/21 04:31:38;;;;;;;2.33;1.60;;;17.30;65.50;18.30;101755.00;;;;5014077;28;20181;-44
2022/09/21 04:34:04;;;;;;;1.80;1.60;;;17.30;65.50;18.30;101757.00;;;;5013231;28;20535;-49
2022/09/21 04:36:31;;;;;;;2.33;1.60;;;17.20;65.50;18.30;101757.00;;;;5013023;28;20597;-44
2022/09/21 04:38:59;;;;;;;2.10;1.80;;;17.20;65.50;18.30;101757.00;;;;5012670;28;20278;-42
2022/09/21 04:41:25;;;;;;;4.23;1.70;;;17.20;65.50;18.20;101757.00;;;;5012736;28;20597;-44
2022/09/21 04:43:50;;;;;;;10.07;2.10;;;17.20;65.50;18.20;101757.00;;;;5012832;28;20204;-43
2022/09/21 04:46:18;;;;;;;11.80;2.50;;;17.20;65.60;18.20;101758.00;;;;5012611;28;20208;-45
2022/09/21 04:48:45;;;;;;;10.87;2.20;;;17.20;65.60;18.20;101753.00;;;;5012395;28;20205;-43
2022/09/21 04:51:11;;;;;;;10.27;2.40;;;17.20;65.50;18.20;101759.00;;;;5011399;28;20268;-43
2022/09/21 04:53:38;;;;;;;8.17;2.43;;;17.20;65.50;18.20;101755.00;;;;5012237;28;20200;-43
2022/09/21 04:56:04;;;;;;;8.93;2.10;;;17.10;65.40;18.20;101757.00;;;;5011093;28;20179;-43
2022/09/21 04:58:30;;;;;;;6.50;2.10;;;17.10;65.50;18.20;101756.00;;;;5012474;28;20265;-44
2022/09/21 05:00:56;;;;;;;3.37;2.10;;;17.10;65.40;18.10;101756.00;;;;5012416;28;20668;-45
2022/09/21 05:03:23;;;;;;;6.37;2.07;;;17.10;65.40;18.10;101763.00;;;;5012233;28;20250;-45
2022/09/21 05:05:50;;;;;;;4.80;2.03;;;17.10;65.30;18.10;101770.00;;;;5012987;28;20173;-44
2022/09/21 05:08:16;;;;;;;5.43;2.30;;;17.10;65.20;18.10;101772.00;;;;5012179;28;20187;-43
2022/09/21 05:10:42;;;;;;;8.27;2.40;;;17.00;65.10;18.10;101769.00;;;;5012533;28;20178;-43
2022/09/21 05:13:08;;;;;;;9.57;2.40;;;17.00;65.10;18.10;101771.00;;;;5010455;28;20205;-45
2022/09/21 05:15:38;;;;;;;5.80;2.17;;;17.00;65.10;18.10;101776.00;;;;5011536;28;20255;-45
2022/09/21 05:18:04;;;;;;;4.77;2.00;;;17.00;65.80;18.10;101779.00;;;;5008132;28;20266;-44
2022/09/21 05:20:29;;;;;;;4.50;1.90;;;17.00;64.90;18.10;101778.00;;;;5011618;28;20255;-43
2022/09/21 05:23:01;;;;;;;6.87;2.03;;;17.00;64.90;18.10;101788.00;;;;5011138;28;20538;-43
2022/09/21 05:25:26;;;;;;;5.70;2.20;;;17.00;64.90;18.00;101782.00;;;;5010833;28;20615;-44
2022/09/21 05:27:52;;;;;;;5.07;1.90;;;16.90;64.80;18.00;101780.00;;;;5009452;28;20183;-53
2022/09/21 05:30:18;;;;;;;4.20;2.30;;;16.90;64.70;18.00;101784.00;;;;5011081;28;20179;-44
2022/09/21 05:32:56;;;;;;;2.90;1.90;;;17.00;64.70;18.00;101794.00;;;;5011419;28;20208;-44
2022/09/21 05:35:56;;;;;;;5.93;2.23;;;16.90;64.70;18.00;101795.00;;;;5012243;28;20230;-44
2022/09/21 05:38:22;;;;;;;5.90;2.17;;;16.90;64.70;17.90;101803.00;;;;5010555;28;20788;-44
2022/09/21 05:40:49;;;;;;;5.40;2.10;;;16.90;64.80;17.90;101807.00;;;;5011102;28;20256;-44
2022/09/21 05:43:15;;;;;;;3.80;1.90;;;16.90;64.80;17.90;101807.00;;;;5011604;28;20203;-44
2022/09/21 05:45:46;;;;;;;4.57;2.10;;;17.10;64.90;17.90;101812.00;;;;5011109;28;20637;-43
2022/09/21 05:48:18;;;;;;;5.43;2.17;;;17.10;64.60;17.90;101808.00;;;;5009771;28;20218;-44
2022/09/21 05:51:11;;;;;;;2.67;2.00;;;17.20;64.50;18.00;101814.00;;;;5010413;28;20664;-44
2022/09/21 05:54:00;;;;;;;2.50;2.00;;;17.40;64.40;18.00;101808.00;;;;5010124;28;20207;-44
2022/09/21 05:56:51;;;;;;;3.87;2.27;;;17.40;64.30;18.00;101803.00;;;;5010250;28;20160;-43
2022/09/21 06:00:03;;;;;;;3.93;2.03;;;17.40;64.20;18.00;101822.00;;;;5010002;28;20170;-45
2022/09/21 06:03:15;;;;;;;3.77;2.10;;;17.40;64.30;18.00;101808.00;;;;4997469;28;20779;-44
2022/09/21 06:05:40;;;;;;;3.30;1.83;;;17.40;64.40;18.00;101804.00;;;;5010186;28;20215;-44
2022/09/21 06:08:06;;;;;;;2.40;1.80;;;17.50;64.50;18.10;101815.00;;;;5009759;28;20203;-44
2022/09/21 06:10:33;;;;;;;3.50;1.90;;;17.40;64.50;18.00;101821.00;;;;5011366;28;20902;-43
2022/09/21 06:12:59;;;;;;;3.63;1.90;;;17.40;64.50;18.10;101824.00;;;;5009767;28;20211;-43
2022/09/21 06:15:25;;;;;;;2.30;1.87;;;17.40;64.70;18.10;101823.00;;;;5011155;28;20727;-44
2022/09/21 06:17:50;;;;;;;2.17;1.93;;;17.40;64.70;18.10;101828.00;;;;5010446;28;20254;-43
2022/09/21 06:20:16;;;;;;;3.27;2.00;;;17.50;64.70;18.10;101823.00;;;;5011562;28;20176;-43
2022/09/21 06:22:42;;;;;;;5.53;2.10;;;17.50;64.70;18.10;101841.00;;;;5011105;28;20208;-44
2022/09/21 06:25:08;;;;;;;3.00;1.90;;;17.60;64.80;18.10;101834.00;;;;5011161;28;20181;-44
2022/09/21 06:27:34;;;;;;;4.83;2.07;;;17.50;64.70;18.20;101840.00;;;;5016668;28;20181;-43
2022/09/21 06:29:59;;;;;;;2.57;1.90;;;17.60;64.80;18.10;101832.00;;;;5011844;28;20172;-43
2022/09/21 06:32:25;;;;;;;4.17;2.20;;;17.60;64.80;18.20;101842.00;;;;5011009;28;20204;-43
2022/09/21 06:34:51;;;;;;;2.20;2.00;;;17.50;64.80;18.20;101829.00;;;;5010928;28;20307;-44
2022/09/21 06:37:17;;;;;;;3.03;2.10;;;17.50;64.90;18.20;101838.00;;;;5009332;28;20193;-43
2022/09/21 06:39:42;;;;;;;2.30;2.07;;;17.50;64.90;18.20;101839.00;;;;5012133;28;20343;-44
2022/09/21 06:42:08;;;;;;;2.13;1.90;;;17.50;64.90;18.20;101840.00;;;;5012982;28;20206;-43
2022/09/21 06:44:34;;;;;;;2.60;2.00;;;17.50;65.10;18.20;101843.00;;;;5010436;28;20637;-44
2022/09/21 06:46:59;;;;;;;2.83;2.10;;;17.50;65.20;18.20;101836.00;;;;5009651;28;20172;-44
2022/09/21 06:49:27;;;;;;;2.30;2.10;;;17.50;65.20;18.20;101838.00;;;;5010257;28;20175;-43
2022/09/21 06:51:54;;;;;;;2.67;1.97;;;17.50;65.10;18.20;101849.00;;;;5009108;28;20287;-43
2022/09/21 06:54:20;;;;;;;4.03;2.10;;;17.50;65.00;18.20;101840.00;;;;5010074;28;20200;-43
2022/09/21 06:56:46;;;;;;;2.93;2.03;;;17.60;65.00;18.20;101836.00;;;;5009429;28;20174;-44
2022/09/21 06:59:11;;;;;;;2.03;1.93;;;17.60;65.00;18.20;101839.00;;;;5010316;28;20176;-43
2022/09/21 07:01:37;;;;;;;3.03;2.30;;;17.60;65.10;18.20;101843.00;;;;5010195;28;20191;-44
2022/09/21 07:04:03;;;;;;;2.77;2.13;;;17.60;65.10;18.20;101843.00;;;;5010876;28;20180;-45
2022/09/21 07:06:29;;;;;;;2.30;2.10;;;17.50;65.20;18.20;101849.00;;;;4964681;28;20252;-45
2022/09/21 07:08:55;;;;;;;2.30;1.90;;;17.50;65.20;18.20;101853.00;;;;5027143;28;20183;-45
2022/09/21 07:11:22;;;;;;;2.37;2.10;;;17.50;65.30;18.20;101853.00;;;;5027357;28;20189;-44
2022/09/21 07:13:48;;;;;;;3.00;2.20;;;17.50;65.30;18.20;101851.00;;;;5026791;28;20202;-43
2022/09/21 07:16:14;;;;;;;2.53;2.00;;;17.50;65.40;18.20;101843.00;;;;5028634;28;20173;-43
2022/09/21 07:18:40;;;;;;;2.20;2.00;;;17.50;65.50;18.20;101857.00;;;;5027789;28;20185;-44
2022/09/21 07:21:08;;;;;;;2.83;2.10;;;17.50;65.50;18.20;101859.00;;;;5028011;28;20175;-43
2022/09/21 07:23:34;;;;;;;2.53;2.00;;;17.60;65.60;18.20;101852.00;;;;5028302;28;20283;-43
2022/09/21 07:26:11;;;;;;;1.93;1.83;;;17.60;65.40;18.30;101853.00;;;;5028275;28;20643;-43
2022/09/21 07:28:37;;;;;;;2.40;2.20;;;17.60;65.40;18.30;101855.00;;;;5027278;28;20650;-43
2022/09/21 07:31:10;;;;;;;7.13;2.40;;;17.70;65.70;18.30;101856.00;;;;5027724;28;20179;-43
2022/09/21 07:33:36;;;;;;;3.30;1.90;;;17.70;66.00;18.30;101859.00;;;;5027861;28;20213;-44
2022/09/21 07:36:08;;;;;;;3.60;2.20;;;17.70;66.10;18.30;101852.00;;;;5028203;28;20184;-44
2022/09/21 07:38:38;;;;;;;4.87;2.40;;;17.70;66.20;18.30;101849.00;;;;5027743;28;20713;-49
2022/09/21 07:41:06;;;;;;;3.73;2.30;;;17.70;66.30;18.30;101854.00;;;;5039603;28;20188;-43
2022/09/21 07:43:32;;;;;;;2.53;2.20;;;17.70;66.50;18.30;101849.00;;;;5042835;28;20195;-46
2022/09/21 07:45:58;;;;;;;5.13;2.33;;;17.70;66.30;18.30;101852.00;;;;5035641;28;20349;-45
2022/09/21 07:48:24;;;;;;;5.53;2.30;;;17.70;66.30;18.30;101858.00;;;;5032657;28;20259;-43
2022/09/21 07:50:49;;;;;;;4.60;2.20;;;17.60;66.20;18.30;101844.00;;;;5038524;28;20291;-43
2022/09/21 07:53:16;;;;;;;3.50;2.30;;;17.70;66.60;18.30;101844.00;;;;5033304;28;20227;-43
2022/09/21 07:55:42;;;;;;;5.40;2.27;;;17.70;66.70;18.30;101842.00;;;;5029462;28;20223;-47
2022/09/21 08:00:53;;;;;;;6.40;2.07;;;17.70;67.00;18.30;101843.00;;;;5028982;28;20183;-43
2022/09/21 08:03:19;;;;;;;8.50;2.30;;;17.70;66.90;18.30;101843.00;;;;5028358;28;20200;-43
2022/09/21 08:05:44;;;;;;;5.53;2.37;;;17.70;67.10;18.30;101845.00;;;;5011077;28;20231;-45
2022/09/21 08:08:10;;;;;;;3.43;2.17;;;17.60;66.90;18.30;101848.00;;;;5005483;28;20633;-43
2022/09/21 08:10:38;;;;;;;3.30;2.27;;;17.60;67.00;18.30;101840.00;;;;5048558;28;20159;-43
2022/09/21 08:13:04;;;;;;;2.47;2.20;;;17.60;67.20;18.30;101840.00;;;;5048530;28;20234;-43
2022/09/21 08:15:30;;;;;;;5.93;2.53;;;17.60;67.20;18.30;101840.00;;;;5048564;28;20283;-43
2022/09/21 08:17:57;;;;;;;4.47;2.27;;;17.60;67.20;18.30;101843.00;;;;5048344;28;20590;-43
2022/09/21 08:20:23;;;;;;;6.03;2.27;;;17.60;67.20;18.30;101847.00;;;;5048712;28;20267;-43
2022/09/21 08:22:52;;;;;;;3.67;1.97;;;17.60;67.30;18.30;101844.00;;;;5048229;28;20198;-43
2022/09/21 08:25:18;;;;;;;4.17;2.13;;;17.60;67.40;18.30;101856.00;;;;5050245;28;20763;-44
2022/09/21 08:27:45;;;;;;;3.57;1.93;;;17.50;67.30;18.30;101856.00;;;;5053649;28;20164;-44
2022/09/21 08:30:12;;;;;;;4.40;2.17;;;17.60;67.40;18.30;101854.00;;;;5048801;28;20181;-43
2022/09/21 08:32:39;;;;;;;5.67;2.10;;;17.60;67.40;18.30;101860.00;;;;5048079;28;20702;-44
2022/09/21 08:35:06;;;;;;;4.10;2.10;;;17.60;67.40;18.30;101858.00;;;;5038591;28;20644;-43
2022/09/21 08:37:34;;;;;;;2.77;2.30;;;17.60;67.40;18.30;101861.00;;;;5027853;28;20616;-45
2022/09/21 08:40:02;;;;;;;3.80;2.10;;;17.60;67.60;18.30;101854.00;;;;5028534;28;20269;-44
2022/09/21 08:42:30;;;;;;;2.50;2.17;;;17.60;67.60;18.30;101852.00;;;;5028673;28;20245;-44
2022/09/21 08:45:00;;;;;;;3.27;2.10;;;17.60;67.60;18.30;101850.00;;;;5028473;28;20192;-44
2022/09/21 08:47:48;;;;;;;2.57;1.90;;;17.60;67.60;18.30;101850.00;;;;5026815;28;20555;-43
2022/09/21 08:50:38;;;;;;;3.87;2.30;;;17.60;67.70;18.30;101849.00;;;;5027439;28;20633;-43
2022/09/21 08:53:25;;;;;;;2.60;1.90;;;17.60;67.80;18.30;101862.00;;;;5027033;28;20293;-44
2022/09/21 08:55:55;;;;;;;4.43;2.00;;;17.60;67.80;18.30;101859.00;;;;5027400;28;20172;-44
2022/09/21 08:58:25;;;;;;;4.47;2.20;;;17.50;67.80;18.30;101852.00;;;;5028248;28;20202;-45
2022/09/21 09:01:24;;;;;;;2.83;2.17;;;17.50;68.00;18.30;101842.00;;;;5027425;28;20180;-44
2022/09/21 09:04:18;;;;;;;2.27;1.90;;;17.60;68.10;18.30;101853.00;;;;5027595;28;20282;-43
2022/09/21 09:07:03;;;;;;;2.13;1.93;;;17.60;68.10;18.30;101845.00;;;;5027274;28;20159;-45
2022/09/21 09:09:42;;;;;;;3.10;2.37;;;17.60;68.20;18.30;101838.00;;;;5027288;28;20169;-44
2022/09/21 09:13:02;;;;;;;3.33;2.30;;;17.60;68.20;18.30;101849.00;;;;5026916;28;20297;-44
2022/09/21 09:15:43;;;;;;;3.20;2.10;;;17.60;68.20;18.20;101855.00;;;;5027743;28;20378;-43
2022/09/21 09:18:24;;;;;;;2.77;2.20;;;17.60;68.50;18.00;101847.00;;;;5031045;28;20200;-44
2022/09/21 09:20:56;;;;;;;3.77;2.00;;;17.60;68.40;18.30;101854.00;;;;5030843;28;20161;-44
2022/09/21 09:23:25;;;;;;;2.87;2.07;;;17.60;68.50;18.30;101843.00;;;;5031539;28;20665;-44
2022/09/21 09:25:56;;;;;;;2.43;2.10;;;17.60;68.60;18.30;101859.00;;;;5030591;28;20168;-44
2022/09/21 09:28:56;;;;;;;3.10;1.73;;;17.60;68.70;18.30;101851.00;;;;5030563;28;20182;-44
2022/09/21 09:31:35;;;;;;;2.20;1.73;;;17.60;68.80;18.30;101842.00;;;;5031243;28;20187;-44
2022/09/21 09:34:11;;;;;;;2.77;1.90;;;17.60;69.00;18.30;101838.00;;;;5030782;28;20649;-44
2022/09/21 09:36:38;;;;;;;3.20;2.10;;;17.70;69.10;18.30;101845.00;;;;5031000;28;20155;-44
2022/09/21 09:39:13;;;;;;;2.77;2.17;;;17.70;69.20;18.30;101844.00;;;;5030000;28;20634;-45
2022/09/21 09:42:06;;;;;;;2.20;2.00;;;17.70;69.30;18.30;101851.00;;;;5036791;28;20196;-44
2022/09/21 09:44:59;;;;;;;3.27;2.23;;;17.70;69.20;18.30;101839.00;;;;5036119;28;20676;-45
2022/09/21 09:48:03;;;;;;;2.30;2.10;;;17.70;69.40;18.30;101846.00;;;;5032029;28;20602;-44
2022/09/21 09:50:32;;;;;;;2.10;1.90;;;17.70;70.20;18.30;101850.00;;;;5030142;28;20188;-44
2022/09/21 09:53:22;;;;;;;2.23;1.80;;;17.70;69.40;18.30;101846.00;;;;5030797;28;20282;-45
2022/09/21 09:55:50;;;;;;;2.20;1.97;;;17.70;69.50;18.30;101842.00;;;;5030492;28;20209;-44
2022/09/21 09:58:40;;;;;;;1.90;1.80;;;17.70;69.60;18.30;101832.00;;;;5030106;28;20182;-44
2022/09/21 10:01:06;;;;;;;2.47;1.90;;;17.70;69.60;18.30;101839.00;;;;5030356;28;20621;-44
2022/09/21 10:03:32;;;;;;;3.40;1.90;;;17.70;69.70;18.30;101835.00;;;;5025665;28;20190;-44
2022/09/21 10:05:57;;;;;;;2.17;2.00;;;17.70;69.60;18.40;101832.00;;;;4972713;28;20761;-45
2022/09/21 10:08:35;;;;;;;3.20;1.80;;;17.70;69.80;18.40;101831.00;;;;5027624;28;20171;-44
2022/09/21 10:11:02;;;;;;;1.90;1.80;;;17.70;70.00;18.40;101762.00;;;;5030183;28;20543;-44
2022/09/21 10:13:38;;;;;;;3.20;1.90;;;17.70;70.00;18.40;101839.00;;;;5030739;28;20217;-44
2022/09/21 10:16:10;;;;;;;6.07;1.93;;;17.80;70.50;18.40;101832.00;;;;5036861;28;20145;-44
2022/09/21 10:18:57;;;;;;;3.00;2.07;;;17.80;71.00;18.40;101834.00;;;;5033661;28;20165;-44
2022/09/21 10:21:34;;;;;;;6.33;2.10;;;17.80;71.00;18.40;101837.00;;;;5028151;28;20230;-46
2022/09/21 10:24:24;;;;;;;4.67;2.10;;;17.80;71.10;18.40;101834.00;;;;5030819;28;20174;-44
2022/09/21 10:27:03;;;;;;;5.47;2.17;;;17.80;71.30;18.40;101825.00;;;;5029448;28;20168;-45
2022/09/21 10:29:42;;;;;;;5.30;1.93;;;17.80;71.30;18.50;101825.00;;;;5029916;28;20163;-44
2022/09/21 10:32:27;;;;;;;7.30;2.00;;;17.80;71.10;18.50;101827.00;;;;5029607;28;20257;-44
2022/09/21 10:35:13;;;;;;;11.57;2.20;;;17.90;71.70;18.50;101820.00;;;;5042948;28;20321;-45
2022/09/21 10:37:41;;;;;;;5.60;2.00;;;18.00;72.10;18.50;101831.00;;;;5041191;28;20223;-44
2022/09/21 10:40:16;;;;;;;5.87;2.30;;;18.00;72.30;18.50;101827.00;;;;5033726;28;20165;-44
2022/09/21 10:42:42;;;;;;;5.30;1.87;;;18.10;72.00;18.60;101822.00;;;;5030731;28;20192;-44
2022/09/21 10:45:31;;;;;;;7.17;2.20;;;18.10;71.80;18.60;101802.00;;;;5029609;28;20201;-44
2022/09/21 10:48:05;;;;;;;6.83;2.20;;;18.10;72.00;18.60;101821.00;;;;5029234;28;20173;-44
2022/09/21 10:50:43;;;;;;;5.20;2.00;;;18.20;71.80;18.70;101817.00;;;;5030789;28;20683;-44
2022/09/21 10:53:09;;;;;;;4.03;1.80;;;18.20;71.70;18.70;101814.00;;;;5030533;28;20612;-44
2022/09/21 10:55:40;;;;;;;4.90;2.20;;;18.30;71.80;18.70;101819.00;;;;5030493;28;20173;-44
2022/09/21 10:58:10;;;;;;;3.23;1.90;;;18.30;71.90;18.40;101807.00;;;;5027796;28;20214;-44
2022/09/21 11:00:44;;;;;;;3.50;1.90;;;18.30;71.80;18.80;101805.00;;;;5010498;28;20200;-43
2022/09/21 11:03:55;;;;;;;8.10;2.00;;;18.40;71.90;18.80;101808.00;;;;5010054;28;20195;-43
2022/09/21 11:06:36;;;;;;;3.03;1.70;;;18.40;71.80;18.80;101812.00;;;;5010694;28;20229;-44
2022/09/21 11:09:06;;;;;;;4.60;1.90;;;18.40;71.80;18.80;101814.00;;;;5015706;28;20190;-44
2022/09/21 11:12:03;;;;;;;3.77;2.10;;;18.40;71.80;18.90;101808.00;;;;5030579;28;20271;-44